Time;durP1;ratioP1;P1;durP2;ratioP2;P2;SDS_P1;SDS_P2;PMS_P1;PMS_P2;Temp;Humidity;BMP_temperature;BMP_pressure;BME280_temperature;BME280_humidity;BME280_pressure;Samples;Min_cycle;Max_cycle;Signal;HPM_P1;HPM_P2
2022/03/19 00:01:02;;;;;;;72.75;48.92;;;6.00;99.90;;;;;;5136994;27;20016;-79
2022/03/19 00:03:28;;;;;;;74.45;48.95;;;5.90;99.90;;;;;;5129923;28;20088;-79
2022/03/19 00:05:54;;;;;;;74.25;49.28;;;5.90;99.90;;;;;;5101128;28;20048;-78
2022/03/19 00:08:19;;;;;;;73.47;47.60;;;5.80;99.90;;;;;;5113911;28;20035;-78
2022/03/19 00:10:46;;;;;;;71.20;47.53;;;5.70;99.90;;;;;;5123610;28;20036;-77
2022/03/19 00:13:12;;;;;;;76.82;48.65;;;5.70;99.90;;;;;;5115510;28;20108;-78
2022/03/19 00:15:38;;;;;;;71.07;48.97;;;5.70;99.90;;;;;;5111584;28;20116;-77
2022/03/19 00:18:04;;;;;;;68.68;45.15;;;5.70;99.90;;;;;;5095844;28;20563;-75
2022/03/19 00:20:31;;;;;;;68.38;47.60;;;5.70;99.90;;;;;;5091322;28;20115;-77
2022/03/19 00:22:56;;;;;;;77.60;50.00;;;5.70;99.90;;;;;;5113369;28;20087;-75
2022/03/19 00:25:23;;;;;;;71.72;47.58;;;5.60;99.90;;;;;;5106720;27;20020;-76
2022/03/19 00:27:48;;;;;;;69.15;47.65;;;5.50;99.90;;;;;;5095628;28;20047;-77
2022/03/19 00:30:14;;;;;;;70.97;49.08;;;5.50;99.90;;;;;;5092091;28;20047;-76
2022/03/19 00:32:40;;;;;;;74.20;48.30;;;5.50;99.90;;;;;;5112516;28;20016;-76
2022/03/19 00:35:07;;;;;;;71.22;47.92;;;5.50;99.90;;;;;;5095554;28;20404;-77
2022/03/19 00:37:48;;;;;;;71.50;49.90;;;5.50;99.90;;;;;;5097033;28;20122;-75
2022/03/19 00:40:15;;;;;;;77.53;47.95;;;5.50;99.90;;;;;;5107323;28;20028;-77
2022/03/19 00:42:42;;;;;;;70.65;47.42;;;5.50;99.90;;;;;;5105989;28;20028;-76
2022/03/19 00:45:09;;;;;;;70.15;48.22;;;5.50;99.90;;;;;;5108218;28;20081;-75
2022/03/19 00:47:35;;;;;;;74.22;48.28;;;5.40;99.90;;;;;;5106264;28;20031;-76
2022/03/19 00:50:01;;;;;;;71.22;47.13;;;5.40;99.90;;;;;;5091592;28;20076;-74
2022/03/19 00:52:27;;;;;;;76.18;49.95;;;5.40;99.90;;;;;;5088066;28;20019;-74
2022/03/19 00:54:52;;;;;;;73.00;48.45;;;5.30;99.90;;;;;;5114701;28;20031;-75
2022/03/19 00:57:18;;;;;;;71.43;47.72;;;5.30;99.90;;;;;;5111088;28;20031;-76
2022/03/19 00:59:43;;;;;;;73.07;47.05;;;5.40;99.90;;;;;;5108426;28;20044;-76
2022/03/19 01:02:09;;;;;;;70.18;47.38;;;5.30;99.90;;;;;;5113905;28;20067;-77
2022/03/19 01:04:34;;;;;;;72.18;48.83;;;5.30;99.90;;;;;;5112941;28;20055;-76
2022/03/19 01:07:00;;;;;;;70.45;47.38;;;5.30;99.90;;;;;;5086114;28;20527;-75
2022/03/19 01:09:26;;;;;;;65.47;46.28;;;5.40;99.90;;;;;;5111891;28;20511;-77
2022/03/19 01:11:52;;;;;;;71.97;46.88;;;5.30;99.90;;;;;;5088893;28;20019;-76
2022/03/19 01:14:18;;;;;;;68.82;46.25;;;5.20;99.90;;;;;;5101292;28;20032;-77
2022/03/19 01:16:43;;;;;;;65.40;43.50;;;5.30;99.90;;;;;;5118678;28;20032;-75
2022/03/19 01:19:09;;;;;;;70.63;46.22;;;5.40;99.90;;;;;;5101540;28;20019;-77
2022/03/19 01:21:35;;;;;;;71.22;45.97;;;5.40;99.90;;;;;;5101452;28;20032;-76
2022/03/19 01:24:05;;;;;;;70.45;47.03;;;5.40;99.90;;;;;;5100330;28;20027;-75
2022/03/19 01:26:31;;;;;;;67.80;45.33;;;5.30;99.90;;;;;;5112608;28;20456;-77
2022/03/19 01:28:57;;;;;;;63.25;46.22;;;5.30;99.90;;;;;;5108908;28;20019;-76
2022/03/19 01:31:26;;;;;;;64.90;43.58;;;5.20;99.90;;;;;;5119150;28;20035;-76
2022/03/19 01:33:52;;;;;;;66.03;42.90;;;5.20;99.90;;;;;;5114571;28;20872;-77
2022/03/19 01:36:18;;;;;;;62.72;42.67;;;5.50;99.90;;;;;;5107049;28;20027;-77
2022/03/19 01:38:44;;;;;;;64.20;43.03;;;5.60;99.90;;;;;;5109878;28;20543;-76
2022/03/19 01:41:09;;;;;;;60.38;43.38;;;5.40;99.90;;;;;;5086605;28;20032;-77
2022/03/19 01:43:39;;;;;;;64.03;42.70;;;5.40;99.90;;;;;;5092636;28;20020;-77
2022/03/19 01:46:05;;;;;;;59.05;39.85;;;5.50;99.90;;;;;;5108983;28;20028;-78
2022/03/19 01:48:31;;;;;;;63.38;45.00;;;5.40;99.90;;;;;;5091619;28;20080;-78
2022/03/19 01:50:56;;;;;;;60.30;42.03;;;5.40;99.90;;;;;;5107897;28;20151;-78
2022/03/19 01:53:22;;;;;;;63.85;43.03;;;5.40;99.90;;;;;;5114710;28;20024;-82
2022/03/19 01:55:47;;;;;;;61.55;41.47;;;5.60;99.90;;;;;;5122751;28;20031;-82
2022/03/19 01:58:13;;;;;;;58.40;40.42;;;5.60;99.90;;;;;;5098369;28;20017;-79
2022/03/19 02:00:39;;;;;;;57.45;41.00;;;5.90;99.90;;;;;;5089484;28;20027;-77
2022/03/19 02:03:06;;;;;;;59.55;41.38;;;5.80;99.90;;;;;;5104164;28;20481;-76
2022/03/19 02:05:31;;;;;;;60.88;42.28;;;5.70;99.90;;;;;;5102211;28;20039;-76
2022/03/19 02:07:57;;;;;;;60.60;44.05;;;5.60;99.90;;;;;;5107377;28;20024;-77
2022/03/19 02:10:23;;;;;;;67.07;43.30;;;5.70;99.90;;;;;;5105142;28;20103;-76
2022/03/19 02:12:50;;;;;;;58.05;40.85;;;5.60;99.90;;;;;;5092520;28;20034;-76
2022/03/19 02:15:16;;;;;;;64.25;42.13;;;5.60;99.90;;;;;;5089543;28;20036;-79
2022/03/19 02:17:42;;;;;;;61.08;40.33;;;5.60;99.90;;;;;;5115591;28;20026;-77
2022/03/19 02:20:09;;;;;;;54.30;38.25;;;5.50;99.90;;;;;;5111917;28;20133;-77
2022/03/19 02:22:34;;;;;;;63.90;42.05;;;5.60;99.90;;;;;;5114584;28;20019;-77
2022/03/19 02:27:44;;;;;;;61.38;43.80;;;5.50;99.90;;;;;;5111563;28;20038;-77
2022/03/19 02:30:12;;;;;;;62.80;42.85;;;5.40;99.90;;;;;;5115660;28;20498;-77
2022/03/19 02:32:40;;;;;;;63.28;41.88;;;5.40;99.90;;;;;;5112511;28;20102;-77
2022/03/19 02:35:06;;;;;;;58.08;40.70;;;5.40;99.90;;;;;;5095202;28;20106;-77
2022/03/19 02:37:44;;;;;;;57.42;39.88;;;5.40;99.90;;;;;;5070957;28;20111;-78
2022/03/19 02:40:12;;;;;;;60.25;40.75;;;5.50;99.90;;;;;;5107810;28;20051;-76
2022/03/19 02:42:37;;;;;;;54.72;37.85;;;5.70;99.90;;;;;;5110807;28;20018;-77
2022/03/19 02:45:05;;;;;;;58.00;40.33;;;5.70;99.90;;;;;;5113718;28;20103;-77
2022/03/19 02:47:32;;;;;;;58.22;40.67;;;5.70;99.90;;;;;;5112007;28;20020;-76
2022/03/19 02:49:57;;;;;;;59.17;39.60;;;5.70;99.90;;;;;;5108189;28;20020;-78
2022/03/19 02:52:23;;;;;;;53.85;39.35;;;5.70;99.90;;;;;;5114021;28;20072;-77
2022/03/19 02:54:48;;;;;;;57.72;38.85;;;5.60;99.90;;;;;;5110954;28;20058;-78
2022/03/19 02:57:14;;;;;;;57.40;39.03;;;5.80;99.90;;;;;;5112740;28;20039;-77
2022/03/19 02:59:39;;;;;;;55.92;37.42;;;5.90;99.90;;;;;;5106741;28;20016;-76
2022/03/19 03:02:07;;;;;;;59.13;39.95;;;5.80;99.90;;;;;;5109246;28;20380;-77
2022/03/19 03:04:33;;;;;;;55.13;37.75;;;5.60;99.90;;;;;;5092283;28;20058;-77
2022/03/19 03:07:02;;;;;;;66.43;37.67;;;5.50;99.90;;;;;;5101923;28;20024;-78
2022/03/19 03:09:29;;;;;;;55.17;36.40;;;5.70;99.90;;;;;;5112996;28;20019;-77
2022/03/19 03:11:56;;;;;;;51.15;36.92;;;5.70;99.90;;;;;;5112657;28;20106;-78
2022/03/19 03:14:22;;;;;;;54.33;36.50;;;5.50;99.90;;;;;;5091697;28;20031;-77
2022/03/19 03:16:52;;;;;;;55.90;39.30;;;5.30;99.90;;;;;;5119411;28;20391;-77
2022/03/19 03:19:19;;;;;;;57.00;38.58;;;5.20;99.90;;;;;;5116009;28;20080;-76
2022/03/19 03:21:45;;;;;;;55.88;38.88;;;5.20;99.90;;;;;;5096552;28;20047;-78
2022/03/19 03:24:12;;;;;;;55.13;39.85;;;5.10;99.90;;;;;;5113566;28;20396;-77
2022/03/19 03:26:38;;;;;;;58.70;40.60;;;5.00;99.90;;;;;;5089533;28;20108;-77
2022/03/19 03:29:05;;;;;;;61.03;39.50;;;4.90;99.90;;;;;;5109600;28;20111;-78
2022/03/19 03:31:32;;;;;;;55.65;37.95;;;4.90;99.90;;;;;;5099110;28;20015;-77
2022/03/19 03:33:57;;;;;;;57.83;40.65;;;4.80;99.90;;;;;;5110579;28;20646;-77
2022/03/19 03:36:23;;;;;;;58.03;40.70;;;4.80;99.90;;;;;;5118310;28;20043;-77
2022/03/19 03:38:49;;;;;;;56.47;40.42;;;4.80;99.90;;;;;;5098838;28;20526;-78
2022/03/19 03:41:15;;;;;;;57.40;39.47;;;4.70;99.90;;;;;;5115281;28;20406;-78
2022/03/19 03:43:40;;;;;;;53.53;37.28;;;4.60;99.90;;;;;;5115130;28;20386;-76
2022/03/19 03:46:07;;;;;;;53.42;37.15;;;4.60;99.90;;;;;;5108568;28;20100;-76
2022/03/19 03:48:35;;;;;;;55.85;38.28;;;4.60;99.90;;;;;;5112276;28;20024;-77
2022/03/19 03:51:00;;;;;;;61.63;38.38;;;4.60;99.90;;;;;;5118447;28;20027;-77
2022/03/19 03:53:28;;;;;;;58.58;37.10;;;4.50;99.90;;;;;;5100914;28;20401;-78
2022/03/19 03:55:54;;;;;;;60.35;39.75;;;4.60;99.90;;;;;;5113433;28;20023;-79
2022/03/19 03:58:20;;;;;;;59.63;37.72;;;4.70;99.90;;;;;;5113857;28;20115;-77
2022/03/19 04:00:46;;;;;;;54.85;37.67;;;4.70;99.90;;;;;;5099582;28;20059;-76
2022/03/19 04:03:11;;;;;;;53.42;37.95;;;4.80;99.90;;;;;;5098168;28;20032;-78
2022/03/19 04:05:37;;;;;;;53.42;36.22;;;4.80;99.90;;;;;;5112246;28;20011;-75
2022/03/19 04:08:03;;;;;;;52.97;35.22;;;4.90;99.90;;;;;;5091047;28;20081;-77
2022/03/19 04:10:31;;;;;;;59.63;37.22;;;5.00;99.90;;;;;;5095832;28;20019;-77
2022/03/19 04:12:56;;;;;;;54.63;35.85;;;4.90;99.90;;;;;;5094875;28;20052;-78
2022/03/19 04:15:22;;;;;;;53.47;36.53;;;4.90;99.90;;;;;;5097187;28;20032;-77
2022/03/19 04:17:47;;;;;;;55.33;35.80;;;5.10;99.90;;;;;;5094091;28;20063;-76
2022/03/19 04:20:13;;;;;;;52.28;35.35;;;5.10;99.90;;;;;;5095600;28;20036;-77
2022/03/19 04:22:41;;;;;;;56.28;36.92;;;5.20;99.90;;;;;;5094562;28;20024;-77
2022/03/19 04:25:17;;;;;;;48.15;35.40;;;5.30;99.90;;;;;;5112435;28;20039;-77
2022/03/19 04:27:46;;;;;;;54.22;35.65;;;5.30;99.90;;;;;;5094049;28;20031;-77
2022/03/19 04:30:13;;;;;;;59.47;35.95;;;5.30;99.90;;;;;;5115184;28;20027;-77
2022/03/19 04:32:40;;;;;;;56.47;39.83;;;5.30;99.90;;;;;;5109784;28;20024;-77
2022/03/19 04:36:29;;;;;;;52.35;36.30;;;5.40;99.90;;;;;;5117069;28;20019;-76
2022/03/19 04:37:52;;;;;;;51.78;34.83;;;5.40;99.90;;;;;;5112418;28;20050;-77
2022/03/19 04:40:17;;;;;;;50.72;35.15;;;5.40;99.90;;;;;;5096249;28;20593;-76
2022/03/19 04:42:43;;;;;;;55.15;36.58;;;5.40;99.90;;;;;;5115874;28;20028;-77
2022/03/19 04:45:09;;;;;;;56.25;36.53;;;5.30;99.90;;;;;;5094365;28;20024;-76
2022/03/19 04:47:35;;;;;;;55.58;37.03;;;5.30;99.90;;;;;;5116026;28;20368;-78
2022/03/19 04:50:01;;;;;;;56.90;36.10;;;5.30;99.90;;;;;;5115083;28;20105;-76
2022/03/19 04:52:26;;;;;;;48.97;34.50;;;5.30;99.90;;;;;;5093701;28;20031;-78
2022/03/19 04:54:57;;;;;;;53.78;36.92;;;5.30;99.90;;;;;;5107048;28;20077;-77
2022/03/19 04:57:22;;;;;;;59.17;37.47;;;5.30;99.90;;;;;;5087635;28;20023;-77
2022/03/19 04:59:48;;;;;;;53.20;34.72;;;5.20;99.90;;;;;;5117697;28;20115;-76
2022/03/19 05:02:13;;;;;;;53.45;34.30;;;5.20;99.90;;;;;;5100894;28;20027;-77
2022/03/19 05:04:39;;;;;;;57.38;36.60;;;5.20;99.90;;;;;;5117310;28;20016;-77
2022/03/19 05:07:04;;;;;;;54.03;34.97;;;5.20;99.90;;;;;;5112930;28;20032;-78
2022/03/19 05:12:29;;;;;;;57.67;35.55;;;5.30;99.90;;;;;;5113767;28;20031;-76
2022/03/19 05:14:54;;;;;;;50.60;34.38;;;5.20;99.90;;;;;;5106629;28;20028;-78
2022/03/19 05:17:20;;;;;;;56.72;37.13;;;5.10;99.90;;;;;;5093444;28;20156;-77
2022/03/19 05:19:45;;;;;;;53.53;35.80;;;5.10;99.90;;;;;;5109218;28;20395;-76
2022/03/19 05:22:11;;;;;;;55.13;36.00;;;5.10;99.90;;;;;;5111422;28;20027;-77
2022/03/19 05:24:36;;;;;;;54.38;36.67;;;5.10;99.90;;;;;;5113263;28;20031;-77
2022/03/19 05:27:02;;;;;;;51.75;35.85;;;5.20;99.90;;;;;;5109985;28;20027;-76
2022/03/19 05:29:30;;;;;;;47.65;33.40;;;5.10;99.90;;;;;;5107810;28;20050;-76
2022/03/19 05:31:56;;;;;;;50.03;33.85;;;5.10;99.90;;;;;;5115452;28;20382;-76
2022/03/19 05:34:30;;;;;;;52.03;36.53;;;5.00;99.90;;;;;;5112092;28;20031;-77
2022/03/19 05:37:00;;;;;;;52.92;35.83;;;5.10;99.90;;;;;;5113710;28;20020;-77
2022/03/19 05:39:26;;;;;;;55.00;35.00;;;5.00;99.90;;;;;;5116456;28;20036;-78
2022/03/19 05:41:52;;;;;;;50.33;34.50;;;5.00;99.90;;;;;;5113721;28;20072;-77
2022/03/19 05:44:18;;;;;;;52.28;35.55;;;5.00;99.90;;;;;;5113726;28;20476;-75
2022/03/19 05:46:44;;;;;;;54.63;35.20;;;5.00;99.90;;;;;;5105269;28;20415;-76
2022/03/19 05:49:10;;;;;;;51.28;35.78;;;5.00;99.90;;;;;;5096757;28;20024;-79
2022/03/19 05:51:35;;;;;;;53.95;33.42;;;5.00;99.90;;;;;;5094270;28;20073;-78
2022/03/19 05:54:02;;;;;;;51.92;33.47;;;5.10;99.90;;;;;;5095719;28;20031;-76
2022/03/19 05:56:28;;;;;;;55.70;33.95;;;5.00;99.90;;;;;;5097171;28;20120;-78
2022/03/19 05:58:55;;;;;;;56.92;36.38;;;5.10;99.90;;;;;;5091197;28;20066;-77
2022/03/19 06:01:26;;;;;;;54.38;34.13;;;5.20;99.90;;;;;;5114265;28;20016;-77
2022/03/19 06:03:55;;;;;;;54.67;36.20;;;5.20;99.90;;;;;;5090041;28;20119;-78
2022/03/19 06:06:20;;;;;;;46.80;33.00;;;5.30;99.90;;;;;;5109685;28;20059;-79
2022/03/19 06:08:46;;;;;;;53.88;34.60;;;5.40;99.90;;;;;;5114214;28;20027;-77
2022/03/19 06:11:13;;;;;;;50.15;34.75;;;5.50;99.90;;;;;;5092609;28;20023;-77
2022/03/19 06:13:39;;;;;;;52.13;34.08;;;5.60;99.90;;;;;;5111265;28;20031;-78
2022/03/19 06:16:05;;;;;;;51.38;34.95;;;5.60;99.90;;;;;;5112814;28;20024;-78
2022/03/19 06:18:30;;;;;;;52.22;35.53;;;5.50;99.90;;;;;;5108226;28;20035;-78
2022/03/19 06:20:56;;;;;;;48.08;35.35;;;5.60;99.90;;;;;;5085188;28;20556;-77
2022/03/19 06:23:22;;;;;;;48.85;33.53;;;5.80;99.90;;;;;;5108559;28;20085;-77
2022/03/19 06:25:48;;;;;;;52.80;36.05;;;5.70;99.90;;;;;;5093107;28;20054;-77
2022/03/19 06:28:15;;;;;;;47.70;33.55;;;5.80;99.90;;;;;;5087778;28;20059;-76
2022/03/19 06:30:40;;;;;;;46.35;32.42;;;5.80;99.90;;;;;;5085337;28;20065;-78
2022/03/19 06:33:06;;;;;;;49.92;34.10;;;5.90;99.90;;;;;;5109994;28;20747;-79
2022/03/19 06:38:17;;;;;;;50.83;32.60;;;6.10;99.90;;;;;;5111353;28;20035;-76
2022/03/19 06:40:43;;;;;;;50.03;32.63;;;6.20;99.90;;;;;;5096104;28;21634;-76
2022/03/19 06:43:08;;;;;;;52.58;34.90;;;6.20;99.90;;;;;;5096492;28;20589;-78
2022/03/19 06:45:34;;;;;;;46.22;32.75;;;6.30;99.90;;;;;;5102630;28;20024;-77
2022/03/19 06:48:00;;;;;;;50.40;31.20;;;6.30;99.90;;;;;;5131749;28;20012;-77
2022/03/19 06:50:25;;;;;;;45.38;33.58;;;6.30;99.90;;;;;;5137250;27;20044;-76
2022/03/19 06:52:51;;;;;;;48.22;33.30;;;6.20;99.90;;;;;;5134957;28;20042;-76
2022/03/19 06:55:16;;;;;;;50.72;33.25;;;6.20;99.90;;;;;;5139612;27;20032;-77
2022/03/19 06:57:42;;;;;;;44.80;31.33;;;6.20;99.90;;;;;;5124696;28;20050;-77
2022/03/19 07:00:08;;;;;;;48.47;34.38;;;6.50;99.90;;;;;;5111579;28;20464;-77
2022/03/19 07:02:49;;;;;;;47.85;33.20;;;6.60;99.90;;;;;;5118699;28;20016;-77
2022/03/19 07:05:23;;;;;;;49.78;32.05;;;6.70;99.90;;;;;;5094400;28;20023;-76
2022/03/19 07:07:50;;;;;;;45.58;32.90;;;6.80;99.90;;;;;;5126053;28;20028;-76
2022/03/19 07:10:18;;;;;;;47.42;33.10;;;6.90;99.90;;;;;;5107321;28;20041;-78
2022/03/19 07:12:44;;;;;;;45.97;34.42;;;7.00;99.90;;;;;;5107233;28;20015;-77
2022/03/19 07:15:15;;;;;;;52.92;34.88;;;7.10;99.90;;;;;;5105710;28;20027;-77
2022/03/19 07:17:41;;;;;;;51.88;35.47;;;6.90;99.90;;;;;;5115780;28;20046;-77
2022/03/19 07:20:07;;;;;;;49.42;32.80;;;6.90;99.90;;;;;;5096838;28;20096;-78
2022/03/19 07:22:52;;;;;;;48.33;32.80;;;7.10;99.90;;;;;;5095267;28;20024;-77
2022/03/19 07:25:20;;;;;;;49.10;32.10;;;7.40;99.90;;;;;;5109645;28;20038;-77
2022/03/19 07:27:46;;;;;;;44.45;32.47;;;7.40;99.90;;;;;;5111908;28;20106;-76
2022/03/19 07:30:12;;;;;;;41.80;32.08;;;7.40;99.90;;;;;;5094550;28;20024;-78
2022/03/19 07:32:39;;;;;;;45.88;30.42;;;7.50;99.90;;;;;;5096478;28;20028;-77
2022/03/19 07:35:06;;;;;;;43.67;30.45;;;7.70;99.90;;;;;;5115510;28;20015;-77
2022/03/19 07:37:32;;;;;;;40.10;28.30;;;7.80;99.90;;;;;;5115106;28;20045;-77
2022/03/19 07:39:59;;;;;;;43.40;29.23;;;7.90;99.90;;;;;;5108627;28;20017;-77
2022/03/19 07:42:25;;;;;;;41.63;29.95;;;8.00;99.90;;;;;;5109448;28;20024;-77
2022/03/19 07:44:51;;;;;;;45.00;31.27;;;8.10;99.90;;;;;;5093758;28;20057;-76
2022/03/19 07:47:17;;;;;;;41.38;29.77;;;8.10;99.90;;;;;;5113692;28;20020;-77
2022/03/19 07:49:43;;;;;;;36.83;26.25;;;8.20;99.90;;;;;;5096580;28;20020;-77
2022/03/19 07:52:09;;;;;;;40.92;27.88;;;8.20;99.90;;;;;;5119026;28;20031;-77
2022/03/19 07:54:36;;;;;;;37.13;26.17;;;8.10;99.90;;;;;;5118236;28;20024;-78
2022/03/19 07:57:06;;;;;;;36.30;25.63;;;8.10;99.90;;;;;;5091231;28;20484;-77
2022/03/19 07:59:32;;;;;;;37.78;25.38;;;8.20;99.90;;;;;;5116949;28;20024;-77
2022/03/19 08:01:57;;;;;;;34.67;26.75;;;8.20;99.90;;;;;;5097421;28;20024;-77
2022/03/19 08:04:23;;;;;;;34.00;23.55;;;8.30;99.90;;;;;;5118492;28;20042;-77
2022/03/19 08:06:53;;;;;;;42.22;25.60;;;8.40;99.90;;;;;;5109950;28;20047;-77
2022/03/19 08:09:20;;;;;;;41.78;27.02;;;8.40;99.90;;;;;;5093849;28;20099;-78
2022/03/19 08:11:47;;;;;;;34.90;22.90;;;8.50;99.90;;;;;;5106566;28;20023;-76
2022/03/19 08:14:14;;;;;;;34.25;23.77;;;8.40;99.90;;;;;;5096285;28;20505;-78
2022/03/19 08:16:40;;;;;;;35.60;24.02;;;8.50;99.90;;;;;;5109957;28;20388;-78
2022/03/19 08:19:06;;;;;;;30.92;21.63;;;8.60;99.90;;;;;;5076693;28;20024;-77
2022/03/19 08:21:31;;;;;;;33.88;23.80;;;8.60;99.90;;;;;;5096582;28;20034;-77
2022/03/19 08:23:57;;;;;;;29.08;22.13;;;8.60;99.90;;;;;;5096868;28;20062;-77
2022/03/19 08:26:22;;;;;;;32.10;22.55;;;8.60;99.70;;;;;;5094995;28;20027;-77
2022/03/19 08:28:48;;;;;;;36.50;22.70;;;8.70;99.30;;;;;;5089408;28;20023;-76
2022/03/19 08:31:14;;;;;;;33.30;22.33;;;8.80;99.60;;;;;;5113555;28;20051;-77
2022/03/19 08:33:39;;;;;;;30.13;23.20;;;8.90;98.70;;;;;;5114657;28;20506;-75
2022/03/19 08:36:05;;;;;;;33.70;22.92;;;8.90;98.60;;;;;;5105503;28;20511;-75
2022/03/19 08:41:14;;;;;;;31.17;21.13;;;9.00;98.20;;;;;;5115349;28;20100;-75
2022/03/19 08:43:40;;;;;;;29.58;21.20;;;9.10;97.90;;;;;;5113604;28;20036;-74
2022/03/19 08:46:06;;;;;;;34.03;22.20;;;9.20;97.40;;;;;;5104195;28;20067;-75
2022/03/19 08:48:32;;;;;;;34.47;20.63;;;9.20;97.50;;;;;;5113356;28;20047;-74
2022/03/19 08:51:39;;;;;;;29.48;20.70;;;9.40;97.50;;;;;;5091870;28;20075;-76
2022/03/19 08:53:44;;;;;;;29.60;20.88;;;9.50;96.70;;;;;;5117127;28;20020;-75
2022/03/19 08:56:09;;;;;;;28.60;20.48;;;9.50;96.30;;;;;;5090751;28;20034;-74
2022/03/19 08:58:35;;;;;;;28.45;19.75;;;9.50;96.10;;;;;;5107519;28;20031;-76
2022/03/19 09:01:00;;;;;;;31.05;22.17;;;9.50;95.40;;;;;;5112428;28;20124;-76
2022/03/19 09:03:26;;;;;;;29.13;20.20;;;9.50;95.30;;;;;;5087722;28;20024;-76
2022/03/19 09:05:52;;;;;;;30.40;22.30;;;9.60;95.50;;;;;;5111472;28;20027;-77
2022/03/19 09:08:17;;;;;;;31.05;20.35;;;9.60;95.40;;;;;;5094711;28;20031;-74
2022/03/19 09:10:43;;;;;;;32.97;21.98;;;9.60;95.10;;;;;;5109452;28;20030;-76
2022/03/19 09:13:09;;;;;;;31.52;21.67;;;9.70;95.30;;;;;;5096485;28;20027;-76
2022/03/19 09:15:34;;;;;;;28.00;20.10;;;9.90;95.10;;;;;;5112427;28;20084;-74
2022/03/19 09:18:00;;;;;;;29.17;21.20;;;10.00;94.90;;;;;;5112802;28;20073;-76
2022/03/19 09:20:25;;;;;;;25.90;21.55;;;10.00;94.80;;;;;;5113264;28;20055;-75
2022/03/19 09:22:51;;;;;;;30.63;21.23;;;10.00;94.80;;;;;;5109186;28;20102;-76
2022/03/19 09:25:16;;;;;;;29.25;22.38;;;10.10;94.80;;;;;;5093163;28;20073;-77
2022/03/19 09:27:42;;;;;;;31.02;22.10;;;10.20;94.60;;;;;;5094378;28;20020;-75
2022/03/19 09:30:08;;;;;;;35.05;23.77;;;10.40;94.50;;;;;;5113907;28;20032;-76
2022/03/19 09:32:35;;;;;;;31.58;21.45;;;10.40;94.10;;;;;;5108810;28;20020;-77
2022/03/19 09:35:00;;;;;;;31.17;22.65;;;10.40;93.90;;;;;;5108933;28;20030;-77
2022/03/19 09:37:26;;;;;;;31.00;22.33;;;10.50;93.60;;;;;;5095008;28;20031;-76
2022/03/19 09:39:52;;;;;;;31.15;21.98;;;10.50;93.10;;;;;;5113057;28;20019;-75
2022/03/19 09:42:18;;;;;;;30.13;23.17;;;10.60;93.40;;;;;;5091590;28;20027;-76
2022/03/19 09:44:44;;;;;;;33.47;21.90;;;10.60;93.20;;;;;;5106486;28;20088;-76
2022/03/19 09:47:10;;;;;;;31.95;23.25;;;10.60;92.80;;;;;;5087502;28;20081;-75
2022/03/19 09:49:36;;;;;;;29.40;22.38;;;10.70;92.80;;;;;;5091109;28;20054;-77
2022/03/19 09:52:03;;;;;;;30.50;23.17;;;10.70;92.80;;;;;;5095762;28;20016;-77
2022/03/19 09:54:29;;;;;;;30.77;22.92;;;10.80;92.50;;;;;;5112898;28;20034;-76
2022/03/19 09:56:54;;;;;;;31.85;22.75;;;10.90;92.30;;;;;;5113048;28;20035;-77
2022/03/19 09:59:24;;;;;;;28.05;20.30;;;10.90;91.90;;;;;;5113654;28;20047;-77
2022/03/19 10:01:51;;;;;;;29.13;20.85;;;11.00;91.30;;;;;;5108998;28;20026;-75
2022/03/19 10:04:20;;;;;;;28.15;21.52;;;11.00;90.80;;;;;;5113627;28;20055;-77
2022/03/19 10:09:42;;;;;;;30.30;21.33;;;10.90;91.00;;;;;;5107731;28;20071;-76
2022/03/19 10:12:17;;;;;;;32.88;23.10;;;10.90;91.20;;;;;;5111316;28;20484;-77
2022/03/19 10:14:47;;;;;;;31.30;24.15;;;11.00;91.80;;;;;;5107485;28;20073;-76
2022/03/19 10:17:25;;;;;;;35.45;24.42;;;11.20;92.70;;;;;;5094817;28;20031;-76
2022/03/19 10:19:51;;;;;;;31.13;23.23;;;11.20;93.10;;;;;;5100399;28;20042;-77
2022/03/19 10:22:25;;;;;;;35.13;25.63;;;11.30;92.80;;;;;;5110627;28;20028;-78
2022/03/19 10:24:56;;;;;;;35.17;25.98;;;11.30;92.90;;;;;;5110171;28;20494;-78
2022/03/19 10:27:22;;;;;;;32.15;23.75;;;11.40;92.50;;;;;;5114989;28;20049;-76
2022/03/19 10:30:04;;;;;;;31.27;24.20;;;11.50;91.60;;;;;;5111845;28;20020;-77
2022/03/19 10:32:30;;;;;;;31.40;23.98;;;11.70;91.80;;;;;;5089919;28;20092;-76
2022/03/19 10:34:55;;;;;;;33.05;23.77;;;11.80;92.00;;;;;;5105800;28;20024;-76
2022/03/19 10:37:36;;;;;;;31.52;23.25;;;11.80;91.80;;;;;;5114498;28;20038;-76
2022/03/19 10:40:03;;;;;;;30.60;22.57;;;11.80;91.70;;;;;;5116332;28;20098;-75
2022/03/19 10:42:39;;;;;;;34.35;25.15;;;11.70;91.20;;;;;;5095578;28;20111;-76
2022/03/19 10:45:09;;;;;;;39.45;28.48;;;11.60;91.80;;;;;;5105337;28;20028;-75
2022/03/19 10:47:40;;;;;;;38.03;27.15;;;11.50;92.80;;;;;;5112154;28;20031;-76
2022/03/19 10:50:06;;;;;;;37.55;26.40;;;11.50;93.20;;;;;;5117369;28;20484;-75
2022/03/19 10:52:33;;;;;;;39.70;27.45;;;11.60;93.20;;;;;;5099109;28;20074;-75
2022/03/19 10:55:03;;;;;;;40.03;27.08;;;11.70;93.10;;;;;;5117655;28;20028;-76
2022/03/19 10:57:29;;;;;;;32.00;24.55;;;11.80;92.90;;;;;;5113566;28;20098;-76
2022/03/19 10:59:54;;;;;;;34.92;27.25;;;11.80;92.10;;;;;;5109236;28;20075;-75
2022/03/19 11:02:21;;;;;;;39.33;27.42;;;11.90;92.70;;;;;;5114732;28;20103;-75
2022/03/19 11:04:49;;;;;;;33.10;25.25;;;11.90;92.60;;;;;;5100203;28;20027;-76
2022/03/19 11:07:19;;;;;;;32.85;25.02;;;11.80;92.60;;;;;;5116138;28;20055;-77
2022/03/19 11:09:45;;;;;;;31.00;22.52;;;12.00;92.40;;;;;;5088653;28;20384;-77
2022/03/19 11:12:17;;;;;;;26.48;20.92;;;11.80;90.70;;;;;;5111730;28;20101;-77
2022/03/19 11:14:44;;;;;;;29.38;21.23;;;11.50;90.80;;;;;;5118433;28;20020;-75
2022/03/19 11:17:23;;;;;;;27.42;20.52;;;11.40;91.10;;;;;;5107006;28;20027;-76
2022/03/19 11:19:49;;;;;;;25.13;19.55;;;11.50;90.40;;;;;;5093993;28;20042;-76
2022/03/19 11:22:15;;;;;;;21.60;16.23;;;11.70;90.10;;;;;;5115874;28;20023;-77
2022/03/19 11:25:07;;;;;;;22.83;17.77;;;11.70;88.20;;;;;;5117810;28;20185;-76
2022/03/19 11:27:36;;;;;;;;;;;11.60;87.60;;;;;;5109036;28;20027;-75
2022/03/19 11:30:04;;;;;;;17.58;14.85;;;11.60;86.90;;;;;;5115338;28;19904;-76
2022/03/19 11:32:30;;;;;;;22.00;15.38;;;11.60;86.70;;;;;;5112448;28;20026;-76
2022/03/19 11:34:59;;;;;;;21.73;13.05;;;11.70;86.80;;;;;;5091817;28;20031;-77
2022/03/19 11:37:57;;;;;;;17.70;12.52;;;11.80;86.20;;;;;;5112594;28;20024;-77
2022/03/19 11:40:22;;;;;;;15.50;11.68;;;12.00;86.70;;;;;;5113983;28;20509;-76
2022/03/19 11:42:55;;;;;;;15.45;11.63;;;12.10;84.70;;;;;;5113073;28;20098;-75
2022/03/19 11:45:22;;;;;;;19.48;12.07;;;12.00;84.20;;;;;;5113678;28;20034;-76
2022/03/19 11:47:47;;;;;;;16.23;12.43;;;12.10;84.60;;;;;;5117141;28;20020;-74
2022/03/19 11:50:30;;;;;;;15.07;11.13;;;12.00;86.10;;;;;;5110282;28;20035;-76
2022/03/19 11:52:55;;;;;;;15.07;11.65;;;12.20;86.50;;;;;;5102631;28;20057;-76
2022/03/19 11:55:31;;;;;;;15.90;12.23;;;12.50;86.10;;;;;;5121834;28;20076;-75
2022/03/19 11:58:05;;;;;;;16.77;12.10;;;12.40;85.20;;;;;;5099644;28;20034;-76
2022/03/19 12:00:34;;;;;;;14.65;10.57;;;12.60;85.10;;;;;;5115220;28;20041;-76
2022/03/19 12:03:29;;;;;;;15.77;9.95;;;12.80;84.90;;;;;;5117616;28;20551;-75
2022/03/19 12:05:54;;;;;;;14.82;10.57;;;12.80;83.60;;;;;;5093829;28;20031;-76
2022/03/19 12:08:21;;;;;;;14.48;10.35;;;12.50;82.80;;;;;;5124365;28;20027;-75
2022/03/19 12:11:00;;;;;;;12.05;9.65;;;12.20;82.00;;;;;;5125210;28;20076;-75
2022/03/19 12:13:26;;;;;;;14.30;10.32;;;12.10;82.40;;;;;;5136078;28;20020;-75
2022/03/19 12:15:55;;;;;;;13.20;9.82;;;12.20;83.70;;;;;;5129277;28;20028;-75
2022/03/19 12:18:46;;;;;;;14.15;10.63;;;12.20;82.60;;;;;;5135294;27;20116;-76
2022/03/19 12:21:11;;;;;;;14.88;10.45;;;12.20;81.40;;;;;;5103831;28;20048;-77
2022/03/19 12:24:06;;;;;;;15.10;10.55;;;12.10;81.90;;;;;;5129600;28;20027;-76
2022/03/19 12:26:42;;;;;;;14.13;9.85;;;12.10;82.50;;;;;;5116424;28;20054;-76
2022/03/19 12:29:09;;;;;;;18.40;10.75;;;12.40;81.70;;;;;;5123674;28;20078;-75
2022/03/19 12:31:49;;;;;;;13.20;10.80;;;12.50;80.20;;;;;;5105609;28;20020;-76
2022/03/19 12:34:29;;;;;;;11.88;9.65;;;12.70;79.90;;;;;;5116562;28;20050;-75
2022/03/19 12:37:01;;;;;;;13.52;10.20;;;12.90;80.90;;;;;;5115529;28;20501;-76
2022/03/19 12:39:27;;;;;;;14.75;9.93;;;12.70;80.60;;;;;;5108385;28;20058;-77
2022/03/19 12:41:53;;;;;;;15.30;10.75;;;12.40;80.40;;;;;;5108817;28;20037;-77
2022/03/19 12:44:29;;;;;;;13.57;10.10;;;12.20;81.00;;;;;;5095879;28;20024;-74
2022/03/19 12:46:58;;;;;;;12.60;9.30;;;12.00;79.50;;;;;;5111133;28;20023;-77
2022/03/19 12:49:25;;;;;;;12.68;8.48;;;11.90;79.30;;;;;;5092077;28;20026;-76
2022/03/19 12:51:51;;;;;;;13.45;8.73;;;11.80;75.80;;;;;;5115984;28;20035;-77